Time;durP1;ratioP1;P1;durP2;ratioP2;P2;SDS_P1;SDS_P2;PMS_P1;PMS_P2;Temp;Humidity;BMP_temperature;BMP_pressure;BME280_temperature;BME280_humidity;BME280_pressure;Samples;Min_cycle;Max_cycle;Signal;HPM_P1;HPM_P2
2023/07/09 00:00:52;;;;;;;5.63;4.77;;;22.40;99.90;;;;;;4995327;28;20203;-71
2023/07/09 00:03:19;;;;;;;6.00;4.17;;;22.40;99.90;;;;;;4995214;28;20175;-71
2023/07/09 00:05:48;;;;;;;5.50;5.10;;;22.40;99.90;;;;;;4994382;28;20207;-71
2023/07/09 00:08:29;;;;;;;5.40;4.87;;;22.40;99.90;;;;;;4993490;28;20478;-72
2023/07/09 00:10:55;;;;;;;6.47;5.13;;;22.30;99.90;;;;;;4994425;28;20434;-71
2023/07/09 00:13:22;;;;;;;4.50;4.17;;;22.30;99.90;;;;;;4995102;28;20497;-71
2023/07/09 00:15:48;;;;;;;5.77;5.27;;;22.20;99.90;;;;;;4994953;28;20418;-72
2023/07/09 00:18:13;;;;;;;7.33;5.03;;;22.30;99.90;;;;;;4994727;28;20442;-72
2023/07/09 00:20:41;;;;;;;6.10;5.20;;;22.50;99.90;;;;;;4994977;28;20501;-72
2023/07/09 00:23:07;;;;;;;5.93;5.33;;;22.10;99.90;;;;;;4994294;28;20278;-72
2023/07/09 00:25:35;;;;;;;6.03;5.47;;;22.10;99.90;;;;;;4993514;28;20565;-71
2023/07/09 00:28:01;;;;;;;9.43;5.50;;;22.00;99.90;;;;;;4993826;28;20230;-72
2023/07/09 00:30:27;;;;;;;5.90;4.80;;;22.00;99.90;;;;;;4994493;28;20474;-71
2023/07/09 00:32:54;;;;;;;5.67;5.27;;;22.00;99.90;;;;;;4994905;28;20427;-72
2023/07/09 00:35:20;;;;;;;6.63;5.17;;;22.00;99.90;;;;;;4994671;28;20229;-72
2023/07/09 00:37:47;;;;;;;6.37;5.40;;;22.10;99.90;;;;;;4994516;28;20931;-71
2023/07/09 00:40:19;;;;;;;6.33;5.30;;;22.10;99.90;;;;;;4993118;28;20939;-71
2023/07/09 00:42:47;;;;;;;5.40;4.90;;;22.10;99.90;;;;;;4994517;28;20426;-72
2023/07/09 00:45:20;;;;;;;5.57;5.10;;;22.10;99.90;;;;;;4975887;28;20458;-72
2023/07/09 00:48:06;;;;;;;5.73;4.90;;;22.10;99.90;;;;;;4994402;28;20453;-71
2023/07/09 00:50:53;;;;;;;6.23;5.63;;;22.10;99.90;;;;;;4994004;28;20438;-71
2023/07/09 00:53:32;;;;;;;6.90;6.10;;;22.10;99.90;;;;;;4994200;28;20426;-71
2023/07/09 00:56:07;;;;;;;5.97;5.47;;;22.00;99.90;;;;;;4993673;28;20446;-72
2023/07/09 00:58:36;;;;;;;6.73;5.60;;;22.00;99.90;;;;;;4993785;28;20453;-71
2023/07/09 01:01:06;;;;;;;7.80;5.40;;;21.90;99.90;;;;;;4992865;28;20431;-71
2023/07/09 01:03:36;;;;;;;8.23;6.03;;;21.80;99.90;;;;;;4994048;28;20422;-72
2023/07/09 01:06:04;;;;;;;6.33;5.20;;;21.70;99.90;;;;;;4994085;28;20418;-71
2023/07/09 01:08:32;;;;;;;8.70;5.90;;;21.60;99.90;;;;;;4993711;28;20921;-72
2023/07/09 01:10:59;;;;;;;6.00;5.27;;;21.70;99.90;;;;;;4994087;28;20509;-72
2023/07/09 01:13:26;;;;;;;5.90;5.00;;;21.60;99.90;;;;;;4993276;28;20443;-71
2023/07/09 01:15:52;;;;;;;6.13;5.63;;;21.60;99.90;;;;;;4992641;28;20545;-71
2023/07/09 01:18:17;;;;;;;7.23;6.07;;;21.60;99.90;;;;;;4990311;28;20949;-72
2023/07/09 01:20:43;;;;;;;7.07;4.93;;;21.50;99.90;;;;;;5000288;28;20187;-72
2023/07/09 01:23:09;;;;;;;9.70;5.93;;;21.50;99.90;;;;;;5003084;28;20171;-71
2023/07/09 01:25:40;;;;;;;10.63;5.80;;;21.50;99.90;;;;;;4994815;28;20262;-72
2023/07/09 01:28:06;;;;;;;6.47;5.00;;;21.40;99.90;;;;;;4979305;28;20462;-72
2023/07/09 01:30:38;;;;;;;7.50;5.30;;;21.40;99.90;;;;;;4991318;28;20786;-71
2023/07/09 01:33:06;;;;;;;8.07;6.33;;;21.40;99.90;;;;;;4989331;28;20177;-71
2023/07/09 01:35:34;;;;;;;6.50;5.83;;;21.40;99.90;;;;;;4999280;28;20466;-72
2023/07/09 01:37:59;;;;;;;8.03;7.17;;;21.40;99.90;;;;;;4980714;28;20526;-71
2023/07/09 01:40:27;;;;;;;7.13;6.53;;;21.40;99.90;;;;;;4973750;28;20886;-72
2023/07/09 01:42:55;;;;;;;8.60;6.37;;;21.30;99.90;;;;;;4974465;28;20165;-72
2023/07/09 01:45:21;;;;;;;5.43;5.00;;;21.30;99.90;;;;;;4993010;28;20431;-71
2023/07/09 01:47:47;;;;;;;6.27;5.40;;;21.30;99.90;;;;;;4993175;28;20439;-71
2023/07/09 01:50:13;;;;;;;7.00;5.90;;;21.30;99.90;;;;;;4992959;28;20493;-71
2023/07/09 01:52:44;;;;;;;6.20;5.30;;;21.30;99.90;;;;;;4992561;28;20193;-71
2023/07/09 01:55:11;;;;;;;6.23;5.40;;;21.30;99.90;;;;;;4993065;28;20241;-72
2023/07/09 01:57:37;;;;;;;8.50;5.93;;;21.40;99.90;;;;;;4992197;28;20486;-71
2023/07/09 02:00:15;;;;;;;5.90;5.40;;;21.30;99.90;;;;;;4992557;28;20443;-71
2023/07/09 02:02:48;;;;;;;5.90;5.30;;;21.20;99.90;;;;;;4993410;28;20258;-71
2023/07/09 02:05:16;;;;;;;5.40;4.70;;;21.20;99.90;;;;;;4992997;28;20422;-72
2023/07/09 02:07:42;;;;;;;7.90;5.97;;;21.20;99.90;;;;;;4993373;28;20462;-72
2023/07/09 02:10:08;;;;;;;5.97;5.37;;;21.20;99.90;;;;;;4992092;28;20477;-71
2023/07/09 02:12:34;;;;;;;5.83;5.23;;;21.20;99.90;;;;;;4992855;28;20184;-71
2023/07/09 02:14:59;;;;;;;9.27;5.33;;;21.20;99.90;;;;;;4991581;28;20470;-71
2023/07/09 02:17:25;;;;;;;5.73;5.10;;;21.20;99.90;;;;;;4992070;28;20207;-72
2023/07/09 02:19:50;;;;;;;7.10;5.33;;;21.10;99.90;;;;;;4991793;28;20187;-72
2023/07/09 02:22:16;;;;;;;5.87;5.27;;;21.00;99.90;;;;;;4992745;28;20185;-72
2023/07/09 02:24:41;;;;;;;5.70;4.87;;;21.00;99.90;;;;;;4992811;28;20179;-71
2023/07/09 02:27:10;;;;;;;6.53;5.93;;;21.00;99.90;;;;;;4991873;28;20286;-72
2023/07/09 02:29:36;;;;;;;6.50;5.63;;;20.90;99.90;;;;;;4992479;28;20583;-72
2023/07/09 02:32:02;;;;;;;5.60;5.10;;;20.90;99.90;;;;;;4991895;28;20493;-72
2023/07/09 02:34:29;;;;;;;7.03;5.80;;;20.90;99.90;;;;;;4992674;28;20511;-71
2023/07/09 02:36:56;;;;;;;5.97;5.30;;;20.90;99.90;;;;;;4992522;28;20202;-71
2023/07/09 02:39:22;;;;;;;7.40;5.63;;;20.90;99.90;;;;;;4992368;28;20414;-71
2023/07/09 02:41:48;;;;;;;5.67;5.17;;;20.90;99.90;;;;;;4992383;28;20932;-71
2023/07/09 02:44:14;;;;;;;7.00;5.83;;;20.90;99.90;;;;;;4991773;28;20510;-71
2023/07/09 02:46:40;;;;;;;5.90;5.23;;;20.80;99.90;;;;;;4991806;28;21038;-71
2023/07/09 02:49:07;;;;;;;7.80;4.90;;;20.80;99.90;;;;;;4992241;28;20180;-72
2023/07/09 02:51:33;;;;;;;5.97;5.07;;;20.80;99.90;;;;;;4992572;28;20182;-71
2023/07/09 02:54:01;;;;;;;6.97;5.07;;;20.70;99.90;;;;;;4992414;28;20505;-71
2023/07/09 02:56:27;;;;;;;8.33;5.90;;;20.70;99.90;;;;;;4992329;28;20410;-71
2023/07/09 02:58:53;;;;;;;7.13;5.60;;;20.60;99.90;;;;;;4992051;28;20502;-71
2023/07/09 03:01:24;;;;;;;6.00;5.33;;;20.70;99.90;;;;;;4991985;28;20176;-71
2023/07/09 03:03:52;;;;;;;5.53;5.07;;;20.60;99.90;;;;;;4991370;28;20179;-71
2023/07/09 03:06:19;;;;;;;6.07;5.60;;;20.60;99.90;;;;;;4992185;28;20944;-71
2023/07/09 03:08:45;;;;;;;9.97;8.97;;;20.60;99.90;;;;;;4992501;28;20454;-71
2023/07/09 03:11:13;;;;;;;7.90;6.60;;;20.70;99.90;;;;;;4996274;28;20514;-72
2023/07/09 03:13:38;;;;;;;7.10;6.47;;;20.60;99.90;;;;;;4996127;28;20174;-71
2023/07/09 03:16:04;;;;;;;7.20;6.40;;;20.60;99.90;;;;;;4995567;28;20407;-72
2023/07/09 03:18:29;;;;;;;7.13;6.50;;;20.60;99.90;;;;;;4994334;28;20294;-72
2023/07/09 03:20:55;;;;;;;6.63;5.93;;;20.60;99.90;;;;;;4995965;28;20184;-71
2023/07/09 03:23:21;;;;;;;8.40;6.30;;;20.60;99.90;;;;;;4996003;28;20633;-71
2023/07/09 03:25:46;;;;;;;7.67;6.87;;;20.60;99.90;;;;;;4996175;28;20203;-71
2023/07/09 03:28:12;;;;;;;7.00;6.20;;;20.60;99.90;;;;;;4995744;28;20231;-71
2023/07/09 03:30:42;;;;;;;6.93;6.30;;;20.60;99.90;;;;;;4995895;28;20633;-71
2023/07/09 03:33:09;;;;;;;7.93;6.47;;;20.50;99.90;;;;;;4999169;28;20889;-72
2023/07/09 03:35:34;;;;;;;6.23;5.73;;;20.50;99.90;;;;;;4993854;28;20526;-71
2023/07/09 03:38:00;;;;;;;6.50;6.00;;;20.50;99.90;;;;;;4992477;28;20970;-72
2023/07/09 03:40:26;;;;;;;6.57;6.00;;;20.50;99.90;;;;;;5009374;28;20607;-70
2023/07/09 03:42:51;;;;;;;6.60;5.83;;;20.50;99.90;;;;;;4996867;28;20187;-70
2023/07/09 03:45:17;;;;;;;7.13;6.43;;;20.50;99.90;;;;;;5004370;28;20262;-70
2023/07/09 03:47:42;;;;;;;7.33;6.70;;;20.50;99.90;;;;;;5002648;28;20231;-71
2023/07/09 03:50:09;;;;;;;8.07;7.27;;;20.60;99.90;;;;;;4990100;28;20190;-70
2023/07/09 03:52:35;;;;;;;6.73;5.90;;;20.60;99.90;;;;;;4990578;28;20180;-71
2023/07/09 03:55:03;;;;;;;7.17;6.47;;;20.50;99.90;;;;;;4980953;28;20462;-70
2023/07/09 03:57:31;;;;;;;7.90;6.87;;;20.50;99.90;;;;;;4994977;28;20283;-71
2023/07/09 03:59:57;;;;;;;7.13;6.50;;;20.60;99.90;;;;;;4996839;28;20450;-70
2023/07/09 04:02:22;;;;;;;8.93;7.17;;;20.50;99.90;;;;;;5002898;28;20430;-71
2023/07/09 04:04:48;;;;;;;7.37;6.30;;;20.50;99.90;;;;;;5000180;28;20234;-70
2023/07/09 04:07:14;;;;;;;7.43;6.60;;;20.50;99.90;;;;;;4994268;28;20207;-71
2023/07/09 04:09:40;;;;;;;7.13;6.43;;;20.40;99.90;;;;;;4994756;28;20904;-71
2023/07/09 04:12:06;;;;;;;8.13;7.17;;;20.40;99.90;;;;;;4995084;28;20446;-70
2023/07/09 04:14:32;;;;;;;6.30;5.70;;;20.40;99.90;;;;;;4994974;28;20199;-70
2023/07/09 04:16:57;;;;;;;7.33;6.63;;;20.50;99.90;;;;;;4994285;28;20509;-70
2023/07/09 04:19:23;;;;;;;7.00;6.40;;;20.60;99.90;;;;;;4994516;28;20172;-71
2023/07/09 04:21:49;;;;;;;8.90;6.00;;;20.70;99.90;;;;;;4994816;28;20196;-71
2023/07/09 04:24:19;;;;;;;6.67;5.43;;;20.80;99.90;;;;;;4994304;28;20462;-70
2023/07/09 04:26:45;;;;;;;9.57;8.67;;;21.00;99.90;;;;;;4994619;28;20210;-70
2023/07/09 04:29:11;;;;;;;10.20;9.20;;;21.00;99.90;;;;;;4994684;28;20423;-71
2023/07/09 04:31:37;;;;;;;7.47;6.77;;;21.10;99.90;;;;;;4994077;28;20443;-71
2023/07/09 04:34:03;;;;;;;6.80;6.13;;;21.20;99.90;;;;;;4994525;28;20462;-70
2023/07/09 04:36:29;;;;;;;6.80;6.10;;;21.30;99.90;;;;;;4994473;28;20413;-71
2023/07/09 04:38:54;;;;;;;6.70;6.00;;;21.40;99.90;;;;;;4976991;28;20423;-71
2023/07/09 04:41:20;;;;;;;6.70;6.00;;;21.60;99.90;;;;;;4993968;28;20222;-71
2023/07/09 04:43:46;;;;;;;7.83;6.30;;;21.80;99.90;;;;;;4994544;28;20195;-71
2023/07/09 04:46:11;;;;;;;9.97;5.30;;;21.90;99.90;;;;;;4994542;28;20222;-71
2023/07/09 04:48:38;;;;;;;8.30;6.20;;;22.10;99.90;;;;;;4993398;28;20179;-71
2023/07/09 04:51:04;;;;;;;8.30;6.00;;;22.20;99.90;;;;;;4994314;28;20238;-71
2023/07/09 04:53:30;;;;;;;7.83;6.47;;;22.20;99.90;;;;;;4994352;28;20422;-70
2023/07/09 04:55:55;;;;;;;6.77;6.17;;;22.30;99.90;;;;;;4994266;28;20572;-71
2023/07/09 04:58:21;;;;;;;7.47;5.50;;;22.40;99.90;;;;;;4993302;28;20254;-71
2023/07/09 05:00:46;;;;;;;7.40;6.20;;;22.40;99.90;;;;;;4994340;28;20171;-72
2023/07/09 05:03:12;;;;;;;7.37;6.30;;;22.50;99.90;;;;;;4994115;28;20182;-71
2023/07/09 05:05:45;;;;;;;7.27;6.50;;;22.60;99.90;;;;;;4993210;28;20183;-71
2023/07/09 05:08:14;;;;;;;6.20;5.70;;;22.80;99.90;;;;;;4986763;28;20217;-71
2023/07/09 05:10:51;;;;;;;7.63;6.67;;;22.90;99.90;;;;;;4995394;28;20442;-71
2023/07/09 05:13:17;;;;;;;7.13;6.47;;;23.00;99.90;;;;;;4991293;28;20446;-71
2023/07/09 05:15:44;;;;;;;7.17;6.37;;;23.00;99.90;;;;;;4996419;28;20463;-71
2023/07/09 05:18:12;;;;;;;8.23;5.97;;;23.10;99.90;;;;;;5004931;28;20461;-71
2023/07/09 05:20:37;;;;;;;7.37;6.67;;;23.20;99.90;;;;;;4987597;28;20439;-71
2023/07/09 05:23:03;;;;;;;6.30;5.70;;;23.40;99.90;;;;;;4993744;28;20924;-72
2023/07/09 05:25:29;;;;;;;6.30;5.80;;;23.50;99.90;;;;;;4993843;28;20175;-71
2023/07/09 05:27:55;;;;;;;6.60;6.00;;;23.80;99.90;;;;;;4993683;28;20283;-72
2023/07/09 05:30:21;;;;;;;7.60;6.30;;;24.00;99.90;;;;;;4993370;28;20180;-71
2023/07/09 05:32:47;;;;;;;10.10;6.90;;;24.20;99.90;;;;;;4992279;28;20238;-71
2023/07/09 05:35:13;;;;;;;7.53;6.80;;;24.20;99.90;;;;;;4993476;28;20466;-71
2023/07/09 05:37:39;;;;;;;7.33;6.60;;;24.20;99.90;;;;;;4992871;28;20191;-71
2023/07/09 05:40:06;;;;;;;6.60;6.00;;;24.20;99.90;;;;;;4985288;28;20451;-71
2023/07/09 05:42:32;;;;;;;6.53;5.93;;;24.30;99.90;;;;;;4993485;28;20813;-71
2023/07/09 05:44:58;;;;;;;6.73;6.17;;;24.50;99.90;;;;;;4993284;28;20421;-71
2023/07/09 05:47:25;;;;;;;7.67;7.03;;;24.80;99.90;;;;;;4993319;28;20446;-71
2023/07/09 05:49:50;;;;;;;8.20;7.17;;;25.00;99.90;;;;;;4992473;28;20831;-71
2023/07/09 05:52:23;;;;;;;7.03;6.43;;;25.20;99.90;;;;;;4993269;28;20414;-71
2023/07/09 05:54:50;;;;;;;7.40;6.70;;;25.50;99.90;;;;;;4992328;28;20203;-71
2023/07/09 05:57:16;;;;;;;7.07;6.47;;;25.50;99.90;;;;;;4993124;28;20450;-71
2023/07/09 05:59:42;;;;;;;6.80;5.87;;;25.70;99.90;;;;;;4992829;28;20418;-71
2023/07/09 06:02:11;;;;;;;7.57;6.50;;;25.60;99.90;;;;;;4993025;28;20444;-70
2023/07/09 06:04:37;;;;;;;12.57;7.07;;;25.60;99.90;;;;;;4993155;28;20179;-71
2023/07/09 06:07:03;;;;;;;6.73;6.13;;;25.80;99.90;;;;;;4992099;28;20474;-71
2023/07/09 06:09:29;;;;;;;6.60;6.07;;;26.10;99.90;;;;;;4992796;28;20222;-71
2023/07/09 06:11:55;;;;;;;7.47;6.20;;;26.40;99.90;;;;;;4990922;28;20435;-71
2023/07/09 06:14:21;;;;;;;7.97;7.07;;;26.70;99.90;;;;;;4992675;28;20859;-72
2023/07/09 06:16:46;;;;;;;6.60;6.00;;;26.70;99.90;;;;;;4992722;28;20241;-70
2023/07/09 06:19:12;;;;;;;8.27;6.97;;;26.90;99.90;;;;;;4992598;28;20246;-71
2023/07/09 06:21:38;;;;;;;6.87;6.27;;;27.00;99.90;;;;;;4992747;28;20179;-71
2023/07/09 06:24:05;;;;;;;7.13;6.53;;;27.30;99.90;;;;;;4992166;28;20184;-71
2023/07/09 06:26:31;;;;;;;6.00;5.50;;;27.40;99.90;;;;;;4992615;28;20465;-71
2023/07/09 06:28:56;;;;;;;7.83;7.13;;;27.40;99.90;;;;;;4991609;28;20442;-70
2023/07/09 06:31:24;;;;;;;6.93;6.30;;;27.50;99.70;;;;;;4992750;28;20167;-71
2023/07/09 06:33:50;;;;;;;7.97;6.87;;;27.70;99.40;;;;;;4975240;28;20176;-71
2023/07/09 06:36:16;;;;;;;7.57;6.70;;;28.00;98.90;;;;;;4992660;28;20798;-71
2023/07/09 06:38:41;;;;;;;7.47;6.77;;;28.40;96.40;;;;;;4974783;28;20210;-71
2023/07/09 06:41:07;;;;;;;6.70;5.77;;;28.60;95.50;;;;;;4991949;28;20481;-72
2023/07/09 06:43:32;;;;;;;7.80;6.10;;;28.90;94.00;;;;;;4991018;28;20222;-71
2023/07/09 06:46:00;;;;;;;6.20;5.70;;;29.10;92.80;;;;;;4991603;28;20188;-71
2023/07/09 06:48:27;;;;;;;5.87;5.20;;;29.30;90.40;;;;;;4992229;28;20187;-71
2023/07/09 06:50:55;;;;;;;5.60;5.20;;;29.60;87.10;;;;;;4992667;28;20415;-71
2023/07/09 06:53:22;;;;;;;7.20;6.50;;;29.50;84.30;;;;;;4992424;28;20978;-71
2023/07/09 06:55:48;;;;;;;9.07;8.13;;;29.90;82.90;;;;;;4992497;28;20458;-71
2023/07/09 06:58:16;;;;;;;11.00;6.40;;;30.30;80.70;;;;;;4991434;28;20469;-71
2023/07/09 07:00:41;;;;;;;8.60;7.03;;;30.50;78.90;;;;;;4991751;28;20621;-71
2023/07/09 07:03:08;;;;;;;5.47;4.67;;;30.50;76.10;;;;;;4991695;28;20522;-71
2023/07/09 07:05:34;;;;;;;6.10;5.57;;;30.40;76.00;;;;;;4991685;28;20179;-71
2023/07/09 07:08:00;;;;;;;6.50;5.83;;;30.40;75.50;;;;;;4992039;28;20835;-71
2023/07/09 07:10:26;;;;;;;8.20;7.40;;;30.30;74.20;;;;;;4992060;28;20641;-71
2023/07/09 07:12:53;;;;;;;6.90;5.00;;;30.40;75.20;;;;;;4992311;28;20913;-71
2023/07/09 07:15:19;;;;;;;9.03;6.13;;;30.40;75.10;;;;;;4974584;28;20458;-71
2023/07/09 07:17:45;;;;;;;6.83;6.23;;;30.70;75.70;;;;;;4991489;28;20835;-71
2023/07/09 07:20:12;;;;;;;6.63;6.13;;;30.80;76.40;;;;;;4991789;28;20419;-71
2023/07/09 07:22:38;;;;;;;6.37;5.80;;;31.10;75.50;;;;;;4994353;28;20435;-71
2023/07/09 07:25:04;;;;;;;6.80;6.20;;;31.40;73.60;;;;;;4998981;28;20442;-71
2023/07/09 07:27:30;;;;;;;7.57;6.00;;;31.50;72.20;;;;;;4991721;28;20254;-71
2023/07/09 07:29:56;;;;;;;6.10;5.37;;;31.70;71.50;;;;;;4985291;28;20980;-71
2023/07/09 07:32:21;;;;;;;7.33;6.60;;;31.90;70.30;;;;;;4997205;28;20520;-71
2023/07/09 07:34:48;;;;;;;6.83;6.17;;;32.10;70.00;;;;;;4988516;28;20203;-71
2023/07/09 07:37:14;;;;;;;6.23;5.60;;;31.90;69.40;;;;;;4987219;28;20198;-71
2023/07/09 07:39:40;;;;;;;6.47;5.87;;;31.90;68.00;;;;;;4993553;28;20796;-71
2023/07/09 07:42:06;;;;;;;10.23;5.60;;;32.20;66.90;;;;;;4987221;28;20484;-71
2023/07/09 07:44:32;;;;;;;6.87;6.27;;;32.60;65.10;;;;;;4992223;28;20430;-71
2023/07/09 07:46:57;;;;;;;6.93;6.30;;;32.90;64.00;;;;;;4991965;28;20538;-71
2023/07/09 07:49:23;;;;;;;5.50;5.03;;;32.90;63.00;;;;;;4990415;28;20178;-71
2023/07/09 07:51:48;;;;;;;6.13;5.60;;;33.20;62.10;;;;;;4991928;28;20549;-71
2023/07/09 07:54:14;;;;;;;6.10;5.50;;;33.20;60.50;;;;;;4991919;28;20199;-71
2023/07/09 07:56:40;;;;;;;8.77;6.03;;;33.50;59.10;;;;;;4995116;28;20192;-71
2023/07/09 07:59:05;;;;;;;7.50;5.37;;;33.40;58.90;;;;;;4995219;28;20577;-71
2023/07/09 08:01:31;;;;;;;8.03;5.63;;;33.40;58.30;;;;;;4994820;28;20536;-71
2023/07/09 08:03:57;;;;;;;7.50;5.77;;;33.40;58.60;;;;;;4994094;28;20528;-71
2023/07/09 08:06:23;;;;;;;6.77;6.27;;;33.60;57.70;;;;;;4994252;28;20199;-71
2023/07/09 08:08:48;;;;;;;6.70;6.10;;;33.60;57.70;;;;;;4995503;28;20419;-71
2023/07/09 08:11:14;;;;;;;6.60;6.00;;;33.60;58.60;;;;;;4995191;28;20538;-71
2023/07/09 08:13:40;;;;;;;5.90;5.40;;;33.60;58.20;;;;;;4995092;28;20664;-71
2023/07/09 08:16:07;;;;;;;7.97;5.73;;;33.70;58.10;;;;;;4994989;28;20546;-71
2023/07/09 08:18:33;;;;;;;8.27;6.00;;;33.50;57.50;;;;;;4994150;28;20202;-71
2023/07/09 08:20:59;;;;;;;6.20;5.60;;;33.20;57.40;;;;;;4994830;28;20423;-71
2023/07/09 08:23:25;;;;;;;7.87;7.17;;;32.70;57.80;;;;;;4977269;28;20191;-71
2023/07/09 08:25:57;;;;;;;7.33;6.73;;;32.80;57.60;;;;;;4994998;28;20419;-71
2023/07/09 08:28:23;;;;;;;7.13;5.47;;;33.00;57.10;;;;;;4994411;28;20206;-71
2023/07/09 08:30:52;;;;;;;6.87;5.93;;;33.30;56.70;;;;;;4995011;28;20423;-71
2023/07/09 08:33:18;;;;;;;6.40;5.80;;;33.90;57.10;;;;;;4994831;28;20167;-71
2023/07/09 08:35:44;;;;;;;5.53;5.13;;;34.20;57.10;;;;;;4993813;28;20833;-71
2023/07/09 08:38:09;;;;;;;8.20;6.40;;;34.40;56.00;;;;;;4993852;28;20226;-71
2023/07/09 08:40:39;;;;;;;7.00;5.60;;;34.70;55.40;;;;;;4996684;28;20179;-71
2023/07/09 08:43:24;;;;;;;7.40;5.43;;;34.80;54.60;;;;;;4996483;28;20187;-71
2023/07/09 08:46:23;;;;;;;6.83;5.33;;;35.10;53.90;;;;;;5000708;28;20445;-71
2023/07/09 08:48:51;;;;;;;6.40;5.80;;;35.40;52.70;;;;;;5002541;28;20433;-71
2023/07/09 08:51:27;;;;;;;7.20;6.50;;;35.40;52.10;;;;;;4997580;28;20441;-71
2023/07/09 08:53:58;;;;;;;7.07;6.47;;;35.40;52.00;;;;;;4988340;28;20435;-71
2023/07/09 08:56:26;;;;;;;7.27;6.40;;;34.60;52.70;;;;;;4985368;28;20426;-71
2023/07/09 08:58:55;;;;;;;6.13;5.40;;;34.90;52.30;;;;;;4993935;28;20791;-71
2023/07/09 09:01:32;;;;;;;8.93;5.90;;;35.50;52.30;;;;;;4976848;28;20423;-71
2023/07/09 09:04:03;;;;;;;6.10;5.60;;;35.70;50.70;;;;;;4974879;28;20511;-71
2023/07/09 09:06:31;;;;;;;7.00;5.47;;;35.70;50.70;;;;;;4973714;28;20426;-71
2023/07/09 09:09:21;;;;;;;6.23;5.30;;;35.70;50.50;;;;;;4974393;28;20830;-71
2023/07/09 09:12:17;;;;;;;6.50;5.40;;;35.00;50.20;;;;;;4994147;28;20839;-71
2023/07/09 09:14:45;;;;;;;5.70;5.30;;;34.90;50.60;;;;;;4976355;28;20473;-71
2023/07/09 09:17:14;;;;;;;5.43;4.93;;;35.30;49.60;;;;;;4993928;28;20481;-71
2023/07/09 09:19:55;;;;;;;8.50;6.10;;;35.40;49.60;;;;;;4993493;28;20640;-71
2023/07/09 09:22:41;;;;;;;6.40;5.20;;;35.90;48.90;;;;;;4994046;28;20522;-71
2023/07/09 09:25:21;;;;;;;6.77;5.40;;;36.20;48.40;;;;;;4993867;28;20418;-71
2023/07/09 09:27:46;;;;;;;6.67;6.03;;;36.30;47.60;;;;;;4992494;28;20458;-71
2023/07/09 09:30:15;;;;;;;5.63;5.13;;;36.40;47.60;;;;;;4992692;28;20456;-71
2023/07/09 09:32:47;;;;;;;5.43;4.93;;;36.60;46.80;;;;;;4993787;28;20282;-72
2023/07/09 09:35:15;;;;;;;6.37;5.87;;;36.60;47.00;;;;;;4993434;28;20466;-71
2023/07/09 09:37:44;;;;;;;5.60;5.10;;;36.50;46.40;;;;;;4993684;28;20446;-71
2023/07/09 09:40:10;;;;;;;5.60;4.90;;;36.30;46.10;;;;;;4993278;28;20469;-71
2023/07/09 09:42:35;;;;;;;6.40;5.80;;;36.50;46.20;;;;;;4992831;28;20453;-71
2023/07/09 09:45:02;;;;;;;6.03;5.43;;;37.00;46.00;;;;;;4990906;28;20450;-71
2023/07/09 09:47:28;;;;;;;5.63;5.13;;;37.50;45.00;;;;;;4992160;28;20199;-71
2023/07/09 09:49:54;;;;;;;5.83;5.33;;;37.30;43.60;;;;;;4993150;28;20791;-71
2023/07/09 09:52:20;;;;;;;5.80;5.00;;;36.70;42.90;;;;;;4993277;28;20669;-71
2023/07/09 09:54:55;;;;;;;5.70;5.20;;;36.70;41.70;;;;;;4991629;28;20191;-71
2023/07/09 09:57:24;;;;;;;8.27;5.20;;;36.90;42.80;;;;;;4988368;28;20499;-71
2023/07/09 09:59:50;;;;;;;6.40;5.87;;;36.90;43.40;;;;;;5002490;28;20443;-71
2023/07/09 10:02:24;;;;;;;6.33;5.20;;;36.90;43.20;;;;;;4993016;28;20924;-71
2023/07/09 10:04:51;;;;;;;5.77;5.17;;;37.20;43.00;;;;;;4992422;28;20182;-71
2023/07/09 10:07:29;;;;;;;6.73;5.40;;;37.60;42.30;;;;;;4992843;28;20512;-71
2023/07/09 10:09:55;;;;;;;5.60;5.10;;;38.10;41.50;;;;;;4992858;28;20923;-71
2023/07/09 10:12:39;;;;;;;5.10;4.70;;;38.20;41.10;;;;;;4992913;28;20431;-71
2023/07/09 10:15:14;;;;;;;5.13;4.63;;;38.70;40.00;;;;;;4993059;28;20282;-71
2023/07/09 10:17:56;;;;;;;6.20;5.60;;;39.20;39.20;;;;;;4991271;28;20493;-71
2023/07/09 10:20:25;;;;;;;5.63;5.20;;;39.30;39.40;;;;;;4992230;28;20438;-71
2023/07/09 10:23:03;;;;;;;5.47;5.07;;;39.80;39.20;;;;;;4991910;28;20434;-72
2023/07/09 10:25:48;;;;;;;7.37;5.17;;;40.60;38.00;;;;;;4992967;28;20419;-71
2023/07/09 10:28:47;;;;;;;6.17;5.67;;;41.30;37.30;;;;;;4991863;28;20529;-72
2023/07/09 10:31:27;;;;;;;5.10;4.67;;;42.00;36.80;;;;;;4992801;28;20786;-72
2023/07/09 10:34:20;;;;;;;5.60;5.20;;;42.70;35.00;;;;;;4992004;28;20449;-72
2023/07/09 10:36:52;;;;;;;6.33;5.77;;;43.10;34.20;;;;;;4992444;28;20497;-72
2023/07/09 10:39:27;;;;;;;5.57;4.53;;;43.00;33.60;;;;;;4991739;28;20427;-72
2023/07/09 10:41:57;;;;;;;5.63;5.13;;;42.60;33.10;;;;;;4992671;28;20411;-72
2023/07/09 10:44:32;;;;;;;5.60;5.03;;;41.60;32.70;;;;;;4992632;28;20547;-72
2023/07/09 10:47:04;;;;;;;6.00;5.20;;;41.50;32.20;;;;;;4992578;28;20897;-72
2023/07/09 10:49:36;;;;;;;5.90;5.50;;;41.00;32.80;;;;;;4991582;28;20429;-71
2023/07/09 10:52:27;;;;;;;4.80;4.40;;;40.30;33.30;;;;;;4991824;28;20466;-71
2023/07/09 10:55:17;;;;;;;5.73;5.30;;;41.80;32.10;;;;;;4983806;28;20449;-72
2023/07/09 10:57:58;;;;;;;5.87;5.27;;;43.40;31.40;;;;;;4987671;28;20581;-72
2023/07/09 11:00:34;;;;;;;4.80;4.50;;;44.60;30.00;;;;;;4989539;28;20502;-71
2023/07/09 11:03:17;;;;;;;9.83;4.63;;;43.90;29.30;;;;;;4998394;28;20452;-71
2023/07/09 11:05:43;;;;;;;5.37;4.87;;;43.70;29.50;;;;;;4988937;28;20970;-72
2023/07/09 11:08:16;;;;;;;5.40;4.80;;;43.80;28.70;;;;;;4991508;28;20839;-72
2023/07/09 11:10:56;;;;;;;7.67;5.37;;;44.50;28.30;;;;;;4991592;28;20434;-72
2023/07/09 11:13:25;;;;;;;4.60;4.30;;;44.60;28.10;;;;;;4991698;28;20426;-72
2023/07/09 11:15:54;;;;;;;5.60;5.10;;;45.70;28.00;;;;;;4992312;28;20430;-72
2023/07/09 11:18:30;;;;;;;5.17;4.70;;;45.80;27.50;;;;;;4991911;28;20466;-71
2023/07/09 11:21:15;;;;;;;6.50;5.20;;;44.80;27.30;;;;;;4992479;28;20449;-72
2023/07/09 11:23:44;;;;;;;5.13;4.73;;;44.40;27.20;;;;;;4991621;28;20509;-72
2023/07/09 11:26:21;;;;;;;6.50;5.40;;;45.00;27.00;;;;;;4992106;28;20835;-72
2023/07/09 11:29:13;;;;;;;4.60;4.30;;;45.30;26.90;;;;;;4991949;28;20494;-72
2023/07/09 11:31:44;;;;;;;6.23;5.73;;;46.10;26.40;;;;;;4968110;28;20956;-72
2023/07/09 11:34:17;;;;;;;5.03;4.63;;;45.20;26.20;;;;;;4976656;28;20419;-72
2023/07/09 11:36:54;;;;;;;5.40;4.90;;;44.00;25.90;;;;;;4976427;28;20447;-72
2023/07/09 11:39:22;;;;;;;6.73;5.97;;;44.80;26.20;;;;;;4993469;28;20542;-72
2023/07/09 11:41:48;;;;;;;8.10;6.70;;;45.20;25.50;;;;;;4995650;28;20490;-72
2023/07/09 11:44:22;;;;;;;6.37;5.80;;;44.80;25.60;;;;;;4995724;28;20514;-72
2023/07/09 11:47:18;;;;;;;7.73;6.43;;;44.90;25.50;;;;;;4994862;28;20307;-72
2023/07/09 11:50:06;;;;;;;5.97;5.47;;;45.30;25.40;;;;;;4977844;28;20453;-72
2023/07/09 11:52:52;;;;;;;6.00;5.50;;;44.30;25.20;;;;;;4995561;28;20431;-71
2023/07/09 11:55:43;;;;;;;7.00;6.30;;;44.00;25.40;;;;;;4994293;28;20438;-71
2023/07/09 11:58:11;;;;;;;6.07;5.57;;;45.70;25.00;;;;;;4987927;28;20814;-71
2023/07/09 12:00:43;;;;;;;5.93;5.43;;;46.00;24.70;;;;;;4995477;28;20565;-71
2023/07/09 12:03:22;;;;;;;8.27;5.00;;;46.20;24.50;;;;;;4994776;28;20433;-71
2023/07/09 12:05:59;;;;;;;6.20;5.60;;;46.50;24.70;;;;;;4995265;28;20468;-72
2023/07/09 12:08:39;;;;;;;6.67;6.17;;;46.20;24.60;;;;;;4994218;28;20477;-72
2023/07/09 12:11:05;;;;;;;6.77;6.27;;;44.20;25.10;;;;;;4995262;28;20430;-71
2023/07/09 12:13:40;;;;;;;7.30;5.03;;;45.30;25.30;;;;;;4995378;28;20422;-71
2023/07/09 12:16:28;;;;;;;6.63;5.80;;;46.50;24.80;;;;;;4995156;28;20420;-71
2023/07/09 12:18:54;;;;;;;5.73;5.23;;;45.00;24.90;;;;;;4994651;28;20426;-72
2023/07/09 12:21:19;;;;;;;7.80;5.30;;;46.10;24.60;;;;;;4994293;28;20522;-71
2023/07/09 12:23:45;;;;;;;7.23;5.90;;;47.00;24.30;;;;;;4993679;28;20517;-72
2023/07/09 12:26:17;;;;;;;6.47;5.90;;;47.60;24.50;;;;;;4994338;28;20211;-71
2023/07/09 12:28:43;;;;;;;7.17;6.57;;;48.40;23.80;;;;;;4994622;28;20204;-71
2023/07/09 12:31:16;;;;;;;5.63;5.23;;;49.60;24.00;;;;;;4994158;28;20935;-72
2023/07/09 12:33:49;;;;;;;7.20;6.50;;;50.10;24.00;;;;;;4993993;28;20715;-72
2023/07/09 12:36:17;;;;;;;7.17;6.67;;;51.10;25.20;;;;;;4994611;28;20919;-72
2023/07/09 12:38:46;;;;;;;7.33;6.83;;;51.40;24.80;;;;;;4993764;28;20430;-72
2023/07/09 12:41:25;;;;;;;7.10;6.50;;;51.40;25.10;;;;;;4994572;28;21003;-71
2023/07/09 12:43:53;;;;;;;6.97;6.27;;;50.10;25.20;;;;;;4994555;28;20509;-72
2023/07/09 12:46:20;;;;;;;6.83;6.27;;;50.00;25.60;;;;;;4994016;28;20524;-72
2023/07/09 12:48:46;;;;;;;6.87;6.27;;;49.20;25.50;;;;;;4994050;28;20423;-71
2023/07/09 12:51:20;;;;;;;7.00;6.43;;;46.20;26.60;;;;;;4994449;28;20421;-71
2023/07/09 12:53:45;;;;;;;7.50;6.73;;;45.60;27.20;;;;;;4994512;28;20421;-71
2023/07/09 12:56:15;;;;;;;6.87;6.27;;;46.30;26.60;;;;;;4993719;28;20423;-71